Barefoot — WDF2911 — position and weather

sailwx.info

Track history (hours):
 
Tides and Currents Weather Stations Pressure Air Temp Water Temp Dewpoint Dewpoint Depression Visibility Wind Speed Wind Dir Waves Ship Positions

Barefoot

Owner: Content, David W, Seattle, WA. More information available from US FCC via Universal Licensing System and Coast Guard Vessel Documentation Center.

Last reported at 2016-Jun-01 06:06 UTC. Time now 2016-Jun-27 18:40 UTC.
Position S 36°43' E 150°03'.
Warning: this ship's position is 26 days out of date.

Length 13 m.

Type: Sailing vessel. MMSI: 367433390.

Date/timePositionNaut miles runAvg speedWind from/ knotsBaromVisibWave heightAir tempDewpointWater temp
2016-Jun-01 06:06S 36°43' E 150°03'3 5.8
2016-Jun-01 05:33S 36°46' E 150°02'6 5.8
2016-Jun-01 04:33S 36°51' E 150°01'6 5.9
2016-Jun-01 03:33S 36°57' E 149°59'6 6.0
2016-Jun-01 02:33S 37°03' E 149°58'3 3.0
2016-Jun-01 01:32S 37°04' E 149°54'0 0.0
2016-Jun-01 00:32S 37°04' E 149°54'0 0.0
2016-May-31 23:26S 37°04' E 149°54'0 0.0
2016-May-31 22:29S 37°04' E 149°54'0 0.0
2016-May-31 21:32S 37°04' E 149°54'0 0.0
2016-May-31 20:32S 37°04' E 149°54'0 0.0
2016-May-31 19:32S 37°04' E 149°54'0 0.0
2016-May-31 18:23S 37°04' E 149°54'0 0.0
2016-May-31 17:29S 37°04' E 149°54'0 0.0
2016-May-31 16:32S 37°04' E 149°54'0 0.0
2016-May-31 15:26S 37°04' E 149°54'0 0.0
2016-May-31 14:26S 37°04' E 149°54'0 0.0
2016-May-31 13:32S 37°04' E 149°54'0 0.0
2016-May-31 12:26S 37°04' E 149°54'0 0.0
2016-May-31 11:32S 37°04' E 149°54'0 0.0
2016-May-31 10:29S 37°04' E 149°54'0 0.0
2016-May-31 09:32S 37°04' E 149°54'0 0.0
2016-May-31 08:32S 37°04' E 149°54'0 0.0
2016-May-31 07:26S 37°04' E 149°54'0 0.0
2016-May-31 06:32S 37°04' E 149°54'0 0.1
2016-May-31 04:33S 37°04' E 149°54'2 2.2
2016-May-31 03:32S 37°07' E 149°56'0 0.0
2016-May-30 11:19S 37°07' E 149°56'0 0.0
2016-May-30 10:31S 37°07' E 149°56'0 0.0
2016-May-30 09:31S 37°07' E 149°56'0 0.0
2016-May-30 08:31S 37°07' E 149°56'0 0.0
2016-May-30 07:31S 37°07' E 149°56'0 0.0
2016-May-30 06:31S 37°07' E 149°56'0 0.0
2016-May-30 05:31S 37°07' E 149°56'0 0.0
2016-May-30 04:28S 37°07' E 149°56'0 0.0
2016-May-30 03:19S 37°07' E 149°56'0 0.0
2016-May-30 02:28S 37°07' E 149°56'0 0.0
2016-May-30 01:31S 37°07' E 149°56'0 0.0
2016-May-30 00:31S 37°07' E 149°56'1 1.2
2016-May-29 23:33S 37°06' E 149°56'5 4.6
2016-May-29 22:28S 37°08' E 150°02'4 4.5
2016-May-29 21:33S 37°12' E 150°04'6 5.7
2016-May-29 20:33S 37°17' E 150°07'7 7.2
2016-May-29 19:33S 37°24' E 150°05'7 7.3
2016-May-29 18:32S 37°31' E 150°01'7 6.9
2016-May-29 17:32S 37°38' E 150°01'6 6.7
2016-May-29 16:33S 37°45' E 150°02'6 6.4
2016-May-29 15:33S 37°51' E 150°02'6 6.2
2016-May-29 14:33S 37°57' E 150°01'262 5.8
2016-May-27 17:17S 42°11' E 148°32'5 7.1
2016-May-27 16:33S 42°15' E 148°29'66 7.1
2016-May-27 07:14S 43°15' E 147°51'0 0.0
2016-May-27 06:32S 43°15' E 147°51'0 0.0
2016-May-27 05:32S 43°15' E 147°51'0 0.0
2016-May-27 04:33S 43°15' E 147°51'3 2.6
2016-May-27 03:33S 43°15' E 147°48'7 6.8
2016-May-27 02:33S 43°12' E 147°39'7 6.7
2016-May-27 01:33S 43°08' E 147°31'6 6.1
2016-May-27 00:33S 43°04' E 147°25'5 5.0
2016-May-26 23:33S 42°60' E 147°23'4 4.5
2016-May-26 22:33S 42°55' E 147°22'2 1.9
2016-May-26 21:32S 42°54' E 147°20'0 0.0
2016-May-26 20:32S 42°54' E 147°20'0 0.0
2016-May-26 19:33S 42°54' E 147°20'0 0.0
2016-May-26 18:31S 42°54' E 147°20'0 0.0
2016-May-26 17:30S 42°54' E 147°20'0 0.0
2016-May-26 16:33S 42°54' E 147°20'0 0.0
2016-May-26 15:33S 42°54' E 147°20'0 0.0
2016-May-26 14:33S 42°54' E 147°20'0 0.0
2016-May-26 13:31S 42°54' E 147°20'0 0.0
2016-May-26 12:33S 42°54' E 147°20'0 0.0
2016-May-26 11:30S 42°54' E 147°20'0 0.0
2016-May-26 10:33S 42°54' E 147°20'0 0.0
2016-May-26 09:33S 42°54' E 147°20'0 0.0
2016-May-26 08:33S 42°54' E 147°20'0 0.0
2016-May-26 07:33S 42°54' E 147°20'0 0.0
2016-May-26 06:33S 42°54' E 147°20'0 0.0
2016-May-26 05:33S 42°54' E 147°20'0 0.0
2016-May-26 04:33S 42°54' E 147°20'0 0.0
2016-May-26 03:33S 42°54' E 147°20'0 0.0
2016-May-26 02:33S 42°54' E 147°20'0 0.0
2016-May-26 01:33S 42°54' E 147°20'0 0.0
2016-May-26 00:32S 42°54' E 147°20'0 0.0
2016-May-25 23:33S 42°54' E 147°20'0 0.0
2016-May-25 22:32S 42°54' E 147°20'0 0.0
2016-May-25 21:33S 42°54' E 147°20'0 0.0
2016-May-25 20:33S 42°54' E 147°20'0 0.0
2016-May-25 19:33S 42°54' E 147°20'0 0.0
2016-May-25 18:33S 42°54' E 147°20'0 0.0
2016-May-25 17:33S 42°54' E 147°20'0 0.0
2016-May-25 16:33S 42°54' E 147°20'0 0.0
2016-May-25 15:33S 42°54' E 147°20'0 0.0
2016-May-25 14:33S 42°54' E 147°20'0 0.0
2016-May-25 13:33S 42°54' E 147°20'0 0.0
2016-May-25 12:28S 42°54' E 147°20'0 0.0
2016-May-25 11:33S 42°54' E 147°20'0 0.0
2016-May-25 10:33S 42°54' E 147°20'0 0.0
2016-May-25 09:30S 42°54' E 147°20'0 0.0
2016-May-25 08:33S 42°54' E 147°20'0 0.0
2016-May-25 07:33S 42°54' E 147°20'0 0.0
2016-May-25 06:33S 42°54' E 147°20'0 0.0
2016-May-25 05:30S 42°54' E 147°20'0 0.0
2016-May-25 04:30S 42°54' E 147°20'0 0.0
2016-May-25 03:33S 42°54' E 147°20'0 0.0
2016-May-25 02:33S 42°54' E 147°20'0 0.0
2016-May-25 01:30S 42°54' E 147°20'0 0.0
2016-May-25 00:33S 42°54' E 147°20'0 0.0
2016-May-24 23:33S 42°54' E 147°20'0 0.0
2016-May-24 22:33S 42°54' E 147°20'0 0.0
2016-May-24 21:33S 42°54' E 147°20'0 0.0
2016-May-24 20:33S 42°54' E 147°20'0 0.0
2016-May-24 19:30S 42°54' E 147°20'0 0.0
2016-May-24 18:30S 42°54' E 147°20'0 0.0
2016-May-24 17:33S 42°54' E 147°20'0 0.0
2016-May-24 16:33S 42°54' E 147°20'0 0.0
2016-May-24 15:33S 42°54' E 147°20'0 0.0
2016-May-24 14:32S 42°54' E 147°20'0 0.0
2016-May-24 13:32S 42°54' E 147°20'0 0.0
2016-May-24 12:33S 42°54' E 147°20'0 0.0
2016-May-24 11:33S 42°54' E 147°20'0 0.0
2016-May-24 10:33S 42°54' E 147°20'0 0.0
2016-May-24 09:33S 42°54' E 147°20'0 0.0
2016-May-24 08:33S 42°54' E 147°20'0 0.0
2016-May-24 07:33S 42°54' E 147°20'0 0.0
2016-May-24 06:33S 42°54' E 147°20'0 0.0
2016-May-24 05:33S 42°54' E 147°20'2 1.7
2016-May-24 04:33S 42°55' E 147°22'6 5.6
2016-May-24 03:33S 43°00' E 147°22'6 5.7
2016-May-24 02:33S 43°06' E 147°18'3 3.0
2016-May-24 01:30S 43°08' E 147°15'4 3.1
2016-May-24 00:21S 43°08' E 147°20'0 0.2
2016-May-23 22:18S 43°07' E 147°20'0 0.0
2016-May-23 21:30S 43°07' E 147°20'0 0.0
2016-May-23 20:06S 43°07' E 147°20'0 0.0
2016-May-23 18:09S 43°07' E 147°20'0 0.0
2016-May-23 17:33S 43°07' E 147°20'0 0.0
2016-May-23 16:27S 43°07' E 147°20'0 0.0
2016-May-23 15:27S 43°07' E 147°20'0 0.0
2016-May-23 14:21S 43°07' E 147°20'0 0.0
2016-May-23 13:33S 43°07' E 147°20'0 0.0
2016-May-23 12:33S 43°07' E 147°20'0 0.0
2016-May-23 11:27S 43°07' E 147°20'0 0.0
2016-May-23 10:33S 43°07' E 147°20'0 0.0
2016-May-23 09:31S 43°07' E 147°20'0 0.0
2016-May-23 08:33S 43°07' E 147°20'0 0.0
2016-May-23 07:27S 43°07' E 147°20'0 0.0
2016-May-23 06:33S 43°07' E 147°20'0 0.0
2016-May-23 05:33S 43°07' E 147°20'0 0.1
2016-May-23 04:27S 43°07' E 147°20'4 3.5
2016-May-23 03:23S 43°08' E 147°15'0 0.0
2016-May-23 02:32S 43°08' E 147°15'0 0.0
2016-May-23 01:32S 43°08' E 147°15'0 0.0
2016-May-23 00:32S 43°08' E 147°15'  
Track history (hours):
 
Tides and Currents Weather Stations Pressure Air Temp Water Temp Dewpoint Dewpoint Depression Visibility Wind Speed Wind Dir Waves Ship Positions

Barefoot

Owner: Content, David W, Seattle, WA. More information available from US FCC via Universal Licensing System and Coast Guard Vessel Documentation Center.

Last reported at 2016-Jun-01 06:06 UTC. Time now 2016-Jun-27 18:40 UTC.
Position S 36°43' E 150°03'.
Warning: this ship's position is 26 days out of date.

Length 13 m.

Type: Sailing vessel. MMSI: 367433390.

Date/timePositionNaut miles runAvg speedWind from/ knotsBaromVisibWave heightAir tempDewpointWater temp
2016-Jun-01 06:06S 36°43' E 150°03'3 5.8
2016-Jun-01 05:33S 36°46' E 150°02'6 5.8
2016-Jun-01 04:33S 36°51' E 150°01'6 5.9
2016-Jun-01 03:33S 36°57' E 149°59'6 6.0
2016-Jun-01 02:33S 37°03' E 149°58'3 3.0
2016-Jun-01 01:32S 37°04' E 149°54'0 0.0
2016-Jun-01 00:32S 37°04' E 149°54'0 0.0
2016-May-31 23:26S 37°04' E 149°54'0 0.0
2016-May-31 22:29S 37°04' E 149°54'0 0.0
2016-May-31 21:32S 37°04' E 149°54'0 0.0
2016-May-31 20:32S 37°04' E 149°54'0 0.0
2016-May-31 19:32S 37°04' E 149°54'0 0.0
2016-May-31 18:23S 37°04' E 149°54'0 0.0
2016-May-31 17:29S 37°04' E 149°54'0 0.0
2016-May-31 16:32S 37°04' E 149°54'0 0.0
2016-May-31 15:26S 37°04' E 149°54'0 0.0
2016-May-31 14:26S 37°04' E 149°54'0 0.0
2016-May-31 13:32S 37°04' E 149°54'0 0.0
2016-May-31 12:26S 37°04' E 149°54'0 0.0
2016-May-31 11:32S 37°04' E 149°54'0 0.0
2016-May-31 10:29S 37°04' E 149°54'0 0.0
2016-May-31 09:32S 37°04' E 149°54'0 0.0
2016-May-31 08:32S 37°04' E 149°54'0 0.0
2016-May-31 07:26S 37°04' E 149°54'0 0.0
2016-May-31 06:32S 37°04' E 149°54'0 0.1
2016-May-31 04:33S 37°04' E 149°54'2 2.2
2016-May-31 03:32S 37°07' E 149°56'0 0.0
2016-May-30 11:19S 37°07' E 149°56'0 0.0
2016-May-30 10:31S 37°07' E 149°56'0 0.0
2016-May-30 09:31S 37°07' E 149°56'0 0.0
2016-May-30 08:31S 37°07' E 149°56'0 0.0
2016-May-30 07:31S 37°07' E 149°56'0 0.0
2016-May-30 06:31S 37°07' E 149°56'0 0.0
2016-May-30 05:31S 37°07' E 149°56'0 0.0
2016-May-30 04:28S 37°07' E 149°56'0 0.0
2016-May-30 03:19S 37°07' E 149°56'0 0.0
2016-May-30 02:28S 37°07' E 149°56'0 0.0
2016-May-30 01:31S 37°07' E 149°56'0 0.0
2016-May-30 00:31S 37°07' E 149°56'1 1.2
2016-May-29 23:33S 37°06' E 149°56'5 4.6
2016-May-29 22:28S 37°08' E 150°02'4 4.5
2016-May-29 21:33S 37°12' E 150°04'6 5.7
2016-May-29 20:33S 37°17' E 150°07'7 7.2
2016-May-29 19:33S 37°24' E 150°05'7 7.3
2016-May-29 18:32S 37°31' E 150°01'7 6.9
2016-May-29 17:32S 37°38' E 150°01'6 6.7
2016-May-29 16:33S 37°45' E 150°02'6 6.4
2016-May-29 15:33S 37°51' E 150°02'6 6.2
2016-May-29 14:33S 37°57' E 150°01'262 5.8
2016-May-27 17:17S 42°11' E 148°32'5 7.1
2016-May-27 16:33S 42°15' E 148°29'66 7.1
2016-May-27 07:14S 43°15' E 147°51'0 0.0
2016-May-27 06:32S 43°15' E 147°51'0 0.0
2016-May-27 05:32S 43°15' E 147°51'0 0.0
2016-May-27 04:33S 43°15' E 147°51'3 2.6
2016-May-27 03:33S 43°15' E 147°48'7 6.8
2016-May-27 02:33S 43°12' E 147°39'7 6.7
2016-May-27 01:33S 43°08' E 147°31'6 6.1
2016-May-27 00:33S 43°04' E 147°25'5 5.0
2016-May-26 23:33S 42°60' E 147°23'4 4.5
2016-May-26 22:33S 42°55' E 147°22'2 1.9
2016-May-26 21:32S 42°54' E 147°20'0 0.0
2016-May-26 20:32S 42°54' E 147°20'0 0.0
2016-May-26 19:33S 42°54' E 147°20'0 0.0
2016-May-26 18:31S 42°54' E 147°20'0 0.0
2016-May-26 17:30S 42°54' E 147°20'0 0.0
2016-May-26 16:33S 42°54' E 147°20'0 0.0
2016-May-26 15:33S 42°54' E 147°20'0 0.0
2016-May-26 14:33S 42°54' E 147°20'0 0.0
2016-May-26 13:31S 42°54' E 147°20'0 0.0
2016-May-26 12:33S 42°54' E 147°20'0 0.0
2016-May-26 11:30S 42°54' E 147°20'0 0.0
2016-May-26 10:33S 42°54' E 147°20'0 0.0
2016-May-26 09:33S 42°54' E 147°20'0 0.0
2016-May-26 08:33S 42°54' E 147°20'0 0.0
2016-May-26 07:33S 42°54' E 147°20'0 0.0
2016-May-26 06:33S 42°54' E 147°20'0 0.0
2016-May-26 05:33S 42°54' E 147°20'0 0.0
2016-May-26 04:33S 42°54' E 147°20'0 0.0
2016-May-26 03:33S 42°54' E 147°20'0 0.0
2016-May-26 02:33S 42°54' E 147°20'0 0.0
2016-May-26 01:33S 42°54' E 147°20'0 0.0
2016-May-26 00:32S 42°54' E 147°20'0 0.0
2016-May-25 23:33S 42°54' E 147°20'0 0.0
2016-May-25 22:32S 42°54' E 147°20'0 0.0
2016-May-25 21:33S 42°54' E 147°20'0 0.0
2016-May-25 20:33S 42°54' E 147°20'0 0.0
2016-May-25 19:33S 42°54' E 147°20'0 0.0
2016-May-25 18:33S 42°54' E 147°20'0 0.0
2016-May-25 17:33S 42°54' E 147°20'0 0.0
2016-May-25 16:33S 42°54' E 147°20'0 0.0
2016-May-25 15:33S 42°54' E 147°20'0 0.0
2016-May-25 14:33S 42°54' E 147°20'0 0.0
2016-May-25 13:33S 42°54' E 147°20'0 0.0
2016-May-25 12:28S 42°54' E 147°20'0 0.0
2016-May-25 11:33S 42°54' E 147°20'0 0.0
2016-May-25 10:33S 42°54' E 147°20'0 0.0
2016-May-25 09:30S 42°54' E 147°20'0 0.0
2016-May-25 08:33S 42°54' E 147°20'0 0.0
2016-May-25 07:33S 42°54' E 147°20'0 0.0
2016-May-25 06:33S 42°54' E 147°20'0 0.0
2016-May-25 05:30S 42°54' E 147°20'0 0.0
2016-May-25 04:30S 42°54' E 147°20'0 0.0
2016-May-25 03:33S 42°54' E 147°20'0 0.0
2016-May-25 02:33S 42°54' E 147°20'0 0.0
2016-May-25 01:30S 42°54' E 147°20'0 0.0
2016-May-25 00:33S 42°54' E 147°20'0 0.0
2016-May-24 23:33S 42°54' E 147°20'0 0.0
2016-May-24 22:33S 42°54' E 147°20'0 0.0
2016-May-24 21:33S 42°54' E 147°20'0 0.0
2016-May-24 20:33S 42°54' E 147°20'0 0.0
2016-May-24 19:30S 42°54' E 147°20'0 0.0
2016-May-24 18:30S 42°54' E 147°20'0 0.0
2016-May-24 17:33S 42°54' E 147°20'0 0.0
2016-May-24 16:33S 42°54' E 147°20'0 0.0
2016-May-24 15:33S 42°54' E 147°20'0 0.0
2016-May-24 14:32S 42°54' E 147°20'0 0.0
2016-May-24 13:32S 42°54' E 147°20'0 0.0
2016-May-24 12:33S 42°54' E 147°20'0 0.0
2016-May-24 11:33S 42°54' E 147°20'0 0.0
2016-May-24 10:33S 42°54' E 147°20'0 0.0
2016-May-24 09:33S 42°54' E 147°20'0 0.0
2016-May-24 08:33S 42°54' E 147°20'0 0.0
2016-May-24 07:33S 42°54' E 147°20'0 0.0
2016-May-24 06:33S 42°54' E 147°20'0 0.0
2016-May-24 05:33S 42°54' E 147°20'2 1.7
2016-May-24 04:33S 42°55' E 147°22'6 5.6
2016-May-24 03:33S 43°00' E 147°22'6 5.7
2016-May-24 02:33S 43°06' E 147°18'3 3.0
2016-May-24 01:30S 43°08' E 147°15'4 3.1
2016-May-24 00:21S 43°08' E 147°20'0 0.2
2016-May-23 22:18S 43°07' E 147°20'0 0.0
2016-May-23 21:30S 43°07' E 147°20'0 0.0
2016-May-23 20:06S 43°07' E 147°20'0 0.0
2016-May-23 18:09S 43°07' E 147°20'0 0.0
2016-May-23 17:33S 43°07' E 147°20'0 0.0
2016-May-23 16:27S 43°07' E 147°20'0 0.0
2016-May-23 15:27S 43°07' E 147°20'0 0.0
2016-May-23 14:21S 43°07' E 147°20'0 0.0
2016-May-23 13:33S 43°07' E 147°20'0 0.0
2016-May-23 12:33S 43°07' E 147°20'0 0.0
2016-May-23 11:27S 43°07' E 147°20'0 0.0
2016-May-23 10:33S 43°07' E 147°20'0 0.0
2016-May-23 09:31S 43°07' E 147°20'0 0.0
2016-May-23 08:33S 43°07' E 147°20'0 0.0
2016-May-23 07:27S 43°07' E 147°20'0 0.0
2016-May-23 06:33S 43°07' E 147°20'0 0.0
2016-May-23 05:33S 43°07' E 147°20'0 0.1
2016-May-23 04:27S 43°07' E 147°20'4 3.5
2016-May-23 03:23S 43°08' E 147°15'0 0.0
2016-May-23 02:32S 43°08' E 147°15'0 0.0
2016-May-23 01:32S 43°08' E 147°15'0 0.0
2016-May-23 00:32S 43°08' E 147°15'  

Dump ship's entire track history